createdAt,value
2018-08-21T00:02:17.842Z,8.00
2018-08-21T00:04:50.982Z,12.70
2018-08-21T00:07:18.353Z,9.93
2018-08-21T00:09:45.697Z,7.60
2018-08-21T00:12:13.106Z,10.37
2018-08-21T00:14:40.543Z,9.23
2018-08-21T00:17:07.940Z,9.13
2018-08-21T00:19:35.350Z,11.20
2018-08-21T00:22:02.866Z,9.07
2018-08-21T00:24:33.152Z,8.87
2018-08-21T00:27:05.970Z,13.40
2018-08-21T00:29:38.233Z,9.80
2018-08-21T00:32:06.717Z,7.80
2018-08-21T00:34:36.357Z,11.50
2018-08-21T00:37:07.736Z,8.40
2018-08-21T00:39:36.729Z,12.10
2018-08-21T00:42:05.422Z,10.80
2018-08-21T00:44:33.614Z,11.00
2018-08-21T00:47:01.490Z,8.83
2018-08-21T00:49:28.992Z,10.70
2018-08-21T00:51:56.466Z,10.03
2018-08-21T00:54:23.881Z,15.40
2018-08-21T00:56:51.282Z,10.23
2018-08-21T00:59:20.895Z,7.50
2018-08-21T01:01:48.313Z,10.97
2018-08-21T01:04:15.689Z,14.73
2018-08-21T01:06:43.394Z,10.30
2018-08-21T01:09:21.625Z,9.63
2018-08-21T01:11:49.825Z,9.90
2018-08-21T01:14:17.633Z,10.43
2018-08-21T01:16:45.026Z,12.30
2018-08-21T01:19:12.745Z,11.60
2018-08-21T01:21:40.913Z,12.33
2018-08-21T01:24:08.355Z,9.47
2018-08-21T01:26:35.771Z,10.57
2018-08-21T01:29:03.265Z,12.97
2018-08-21T01:31:30.653Z,11.30
2018-08-21T01:33:58.101Z,12.30
2018-08-21T01:36:25.470Z,12.20
2018-08-21T01:38:52.862Z,10.73
2018-08-21T01:41:20.346Z,10.07
2018-08-21T01:43:47.994Z,10.33
2018-08-21T01:46:15.654Z,10.97
2018-08-21T01:48:43.232Z,10.40
2018-08-21T01:51:10.874Z,11.50
2018-08-21T01:53:38.519Z,10.93
2018-08-21T01:56:06.091Z,12.30
2018-08-21T01:58:33.714Z,10.47
2018-08-21T02:01:01.367Z,11.03
2018-08-21T02:03:29.019Z,10.40
2018-08-21T02:05:56.665Z,11.30
2018-08-21T02:08:24.379Z,10.33
2018-08-21T02:10:52.101Z,11.20
2018-08-21T02:13:19.826Z,10.03
2018-08-21T02:15:47.698Z,10.50
2018-08-21T02:18:16.378Z,11.70
2018-08-21T02:20:43.981Z,10.33
2018-08-21T02:23:12.004Z,10.07
2018-08-21T02:25:39.622Z,11.13
2018-08-21T02:28:07.342Z,9.53
2018-08-21T02:30:34.934Z,12.13
2018-08-21T02:33:02.652Z,10.27
2018-08-21T02:35:43.111Z,11.63
2018-08-21T02:38:10.779Z,10.07
2018-08-21T02:40:38.462Z,8.57
2018-08-21T02:43:06.454Z,11.47
2018-08-21T02:45:34.150Z,10.43
2018-08-21T02:48:02.091Z,11.40
2018-08-21T02:50:29.686Z,10.37
2018-08-21T02:52:57.358Z,12.10
2018-08-21T02:55:25.045Z,10.90
2018-08-21T02:57:52.767Z,12.37
2018-08-21T03:00:20.470Z,12.23
2018-08-21T03:02:48.098Z,13.93
2018-08-21T03:05:15.770Z,12.70
2018-08-21T03:07:43.527Z,10.77
2018-08-21T03:10:11.431Z,11.17
2018-08-21T03:12:39.122Z,11.40
2018-08-21T03:15:07.231Z,9.80
2018-08-21T03:17:34.848Z,12.17
2018-08-21T03:20:02.587Z,14.07
2018-08-21T03:22:30.223Z,13.57
2018-08-21T03:24:57.975Z,11.77
2018-08-21T03:27:25.606Z,10.27
2018-08-21T03:29:53.254Z,11.33
2018-08-21T03:32:20.904Z,11.00
2018-08-21T03:34:48.530Z,10.47
2018-08-21T03:37:16.263Z,11.17
2018-08-21T03:39:48.084Z,11.07
2018-08-21T03:42:16.484Z,10.60
2018-08-21T03:44:51.467Z,14.10
2018-08-21T03:47:19.104Z,10.73
2018-08-21T03:49:46.709Z,12.43
2018-08-21T03:52:14.447Z,11.83
2018-08-21T03:54:42.255Z,14.00
2018-08-21T03:57:29.082Z,9.70
2018-08-21T03:59:58.774Z,10.63
2018-08-21T04:02:26.439Z,11.70
2018-08-21T04:04:54.053Z,12.10
2018-08-21T04:07:21.671Z,10.27
2018-08-21T04:09:51.207Z,11.50
2018-08-21T04:12:22.459Z,11.83
2018-08-21T04:14:50.327Z,13.70
2018-08-21T04:17:26.097Z,14.03
2018-08-21T04:19:55.747Z,11.97
2018-08-21T04:22:27.610Z,12.80
2018-08-21T04:24:55.249Z,11.70
2018-08-21T04:27:22.902Z,19.80
2018-08-21T04:29:50.549Z,12.93
2018-08-21T04:32:18.934Z,15.37
2018-08-21T04:34:55.027Z,15.07
2018-08-21T04:37:23.270Z,13.57
2018-08-21T04:39:51.347Z,17.17
2018-08-21T04:42:19.002Z,14.57
2018-08-21T04:44:46.694Z,15.30
2018-08-21T04:47:26.666Z,12.73
2018-08-21T04:49:55.707Z,14.33
2018-08-21T04:52:23.478Z,10.87
2018-08-21T04:54:51.110Z,15.73
2018-08-21T04:57:18.873Z,13.03
2018-08-21T04:59:46.512Z,14.30
2018-08-21T05:02:14.174Z,11.40
2018-08-21T05:04:41.834Z,12.60
2018-08-21T05:07:09.442Z,13.90
2018-08-21T05:09:37.210Z,10.97
2018-08-21T05:12:05.186Z,12.73
2018-08-21T05:14:32.938Z,13.37
2018-08-21T05:17:00.617Z,13.00
2018-08-21T05:19:28.291Z,11.80
2018-08-21T05:21:55.979Z,14.77
2018-08-21T05:24:28.202Z,11.63
2018-08-21T05:26:56.062Z,14.27
2018-08-21T05:29:23.722Z,12.37
2018-08-21T05:31:51.387Z,15.83
2018-08-21T05:34:21.015Z,11.40
2018-08-21T05:36:48.638Z,11.03
2018-08-21T05:39:16.282Z,11.93
2018-08-21T05:41:43.882Z,11.83
2018-08-21T05:44:11.479Z,19.73
2018-08-21T05:46:39.151Z,15.53
2018-08-21T05:49:06.758Z,16.20
2018-08-21T05:51:34.414Z,13.63
2018-08-21T05:54:01.987Z,12.97
2018-08-21T05:56:29.686Z,13.27
2018-08-21T05:59:00.794Z,13.47
2018-08-21T06:01:34.218Z,11.00
2018-08-21T06:04:02.434Z,12.37
2018-08-21T06:06:30.404Z,12.20
2018-08-21T06:08:58.212Z,11.60
2018-08-21T06:11:28.959Z,11.30
2018-08-21T06:13:56.760Z,11.87
2018-08-21T06:16:24.734Z,10.97
2018-08-21T06:18:52.731Z,12.30
2018-08-21T06:21:20.390Z,13.43
2018-08-21T06:23:47.998Z,18.70
2018-08-21T06:26:15.567Z,14.87
2018-08-21T06:28:43.238Z,12.67
2018-08-21T06:31:10.890Z,13.43
2018-08-21T06:33:38.603Z,11.37
2018-08-21T06:36:07.082Z,11.63
2018-08-21T06:38:34.728Z,16.23
2018-08-21T06:41:02.416Z,12.53
2018-08-21T06:43:30.350Z,12.50
2018-08-21T06:46:09.326Z,16.20
2018-08-21T06:48:36.982Z,11.90
2018-08-21T06:51:04.678Z,12.20
2018-08-21T06:53:32.366Z,15.30
2018-08-21T06:56:01.062Z,14.53
2018-08-21T06:58:28.666Z,11.67
2018-08-21T07:01:01.972Z,15.03
2018-08-21T07:03:29.665Z,12.73
2018-08-21T07:05:57.310Z,13.40
2018-08-21T07:08:24.951Z,12.20
2018-08-21T07:10:52.530Z,13.20
2018-08-21T07:13:20.253Z,11.73
2018-08-21T07:15:47.875Z,11.80
2018-08-21T07:18:15.589Z,14.90
2018-08-21T07:20:43.274Z,13.70
2018-08-21T07:23:10.963Z,13.60
2018-08-21T07:25:44.271Z,13.00
2018-08-21T07:28:28.706Z,12.93
2018-08-21T07:30:56.434Z,15.60
2018-08-21T07:33:32.308Z,12.17
2018-08-21T07:35:59.966Z,16.17
2018-08-21T07:38:36.914Z,14.23
2018-08-21T07:41:04.598Z,12.67
2018-08-21T07:43:33.151Z,9.93
2018-08-21T07:46:08.215Z,13.00
2018-08-21T07:48:41.582Z,13.37
2018-08-21T07:51:09.242Z,12.00
2018-08-21T07:53:38.135Z,14.23
2018-08-21T07:56:06.118Z,14.83
2018-08-21T07:58:33.747Z,13.43
2018-08-21T08:01:01.454Z,11.07
2018-08-21T08:03:29.146Z,14.73
2018-08-21T08:05:56.790Z,12.87
2018-08-21T08:08:24.498Z,12.87
2018-08-21T08:10:52.103Z,14.50
2018-08-21T08:13:21.872Z,15.63
2018-08-21T08:15:49.667Z,11.80
2018-08-21T08:33:44.570Z,12.83
2018-08-21T08:36:12.126Z,13.73
2018-08-21T08:38:39.741Z,16.10
2018-08-21T08:41:07.443Z,12.50
2018-08-21T08:43:35.102Z,11.20
2018-08-21T08:46:02.671Z,11.93
2018-08-21T08:48:30.358Z,15.60
2018-08-21T08:50:58.702Z,16.13
2018-08-21T08:53:26.299Z,10.70
2018-08-21T08:55:55.324Z,11.87
2018-08-21T08:58:24.804Z,11.30
2018-08-21T09:00:58.022Z,11.50
2018-08-21T09:03:27.924Z,11.90
2018-08-21T09:05:55.488Z,10.13
2018-08-21T09:08:23.090Z,12.53
2018-08-21T09:10:50.728Z,10.47
2018-08-21T09:13:18.334Z,17.80
2018-08-21T09:15:48.090Z,12.97
2018-08-21T09:18:15.714Z,13.00
2018-08-21T09:20:43.342Z,11.70
2018-08-21T09:23:10.980Z,13.53
2018-08-21T09:41:06.938Z,11.17
2018-08-21T09:43:34.868Z,11.33
2018-08-21T09:46:02.734Z,10.80
2018-08-21T09:48:30.423Z,16.40
2018-08-21T09:51:01.122Z,14.57
2018-08-21T09:53:28.684Z,9.70
2018-08-21T09:55:56.364Z,11.40
2018-08-21T09:58:23.919Z,12.40
2018-08-21T10:00:57.095Z,12.03
2018-08-21T10:03:31.057Z,12.17
2018-08-21T10:06:00.883Z,11.50
2018-08-21T10:08:55.377Z,11.90
2018-08-21T10:11:24.103Z,10.63
2018-08-21T10:13:51.981Z,11.93
2018-08-21T10:16:20.075Z,11.57
2018-08-21T10:18:48.385Z,10.90
2018-08-21T10:21:21.651Z,9.70
2018-08-21T10:23:50.954Z,12.13
2018-08-21T10:26:35.290Z,13.20
2018-08-21T10:29:03.106Z,12.33
2018-08-21T10:31:31.001Z,9.97
2018-08-21T10:34:01.520Z,10.03
2018-08-21T10:36:29.219Z,9.30
2018-08-21T10:40:01.002Z,14.20
2018-08-21T10:42:28.622Z,11.00
2018-08-21T10:44:56.215Z,8.57
2018-08-21T10:47:23.810Z,9.03
2018-08-21T10:49:51.482Z,12.97
2018-08-21T10:52:19.398Z,9.37
2018-08-21T10:54:47.014Z,10.80
2018-08-21T10:57:15.632Z,9.93
2018-08-21T10:59:43.335Z,12.03
2018-08-21T11:02:27.251Z,9.33
2018-08-21T11:04:54.987Z,7.57
2018-08-21T11:07:27.147Z,9.00
2018-08-21T11:09:58.575Z,8.87
2018-08-21T11:12:26.215Z,9.70
2018-08-21T11:14:53.816Z,10.40
2018-08-21T11:17:21.510Z,9.30
2018-08-21T11:19:49.098Z,10.80
2018-08-21T11:22:16.734Z,9.67
2018-08-21T11:24:44.406Z,12.73
2018-08-21T11:27:12.012Z,9.03
2018-08-21T11:29:39.680Z,13.63
2018-08-21T11:32:07.265Z,14.27
2018-08-21T11:34:34.894Z,8.63
2018-08-21T11:37:02.499Z,10.50
2018-08-21T11:39:31.130Z,10.27
2018-08-21T11:41:58.766Z,9.10
2018-08-21T11:44:26.436Z,9.53
2018-08-21T11:46:54.095Z,8.68
2018-08-21T11:49:21.707Z,11.80
2018-08-21T11:51:49.338Z,8.10
2018-08-21T11:54:16.938Z,7.80
2018-08-21T11:56:44.622Z,11.93
2018-08-21T11:59:12.222Z,8.57
2018-08-21T12:01:39.914Z,10.03
2018-08-21T12:04:07.561Z,8.70
2018-08-21T12:06:35.244Z,11.13
2018-08-21T12:09:04.436Z,8.10
2018-08-21T12:11:31.997Z,11.40
2018-08-21T12:13:59.579Z,10.07
2018-08-21T12:16:27.186Z,8.60
2018-08-21T12:18:55.877Z,8.63
2018-08-21T12:21:23.533Z,8.50
2018-08-21T12:23:51.355Z,9.20
2018-08-21T12:26:18.783Z,9.03
2018-08-21T12:28:46.390Z,8.20
2018-08-21T12:31:14.067Z,7.67
2018-08-21T12:33:41.700Z,7.70
2018-08-21T12:36:09.342Z,9.00
2018-08-21T12:38:36.984Z,7.30
2018-08-21T12:41:04.626Z,8.57
2018-08-21T12:43:32.382Z,8.30
2018-08-21T12:46:00.010Z,9.77
2018-08-21T12:48:27.612Z,8.30
2018-08-21T12:50:55.227Z,8.10
2018-08-21T12:53:26.243Z,7.33
2018-08-21T12:55:53.938Z,7.97
2018-08-21T12:58:21.590Z,7.60
2018-08-21T13:00:49.183Z,7.57
2018-08-21T13:03:16.703Z,9.53
2018-08-21T13:05:44.334Z,6.90
2018-08-21T13:08:11.947Z,7.50
2018-08-21T13:10:39.572Z,7.13
2018-08-21T13:13:07.179Z,8.57
2018-08-21T13:15:34.704Z,6.80
2018-08-21T13:18:02.382Z,7.57
2018-08-21T13:20:29.938Z,8.23
2018-08-21T13:22:57.530Z,7.50
2018-08-21T13:25:25.239Z,9.00
2018-08-21T13:27:52.870Z,11.33
2018-08-21T13:30:20.482Z,8.17
2018-08-21T13:32:48.068Z,8.00
2018-08-21T13:35:15.662Z,13.67
2018-08-21T13:37:43.271Z,6.73
2018-08-21T13:40:10.871Z,7.60
2018-08-21T13:42:38.482Z,8.00
2018-08-21T13:45:06.087Z,8.43
2018-08-21T13:47:33.666Z,8.27
2018-08-21T13:50:01.319Z,7.37
2018-08-21T13:52:28.947Z,7.50
2018-08-21T13:54:56.510Z,9.57
2018-08-21T13:57:24.074Z,6.97
2018-08-21T13:59:51.687Z,10.70
2018-08-21T14:02:22.555Z,8.50
2018-08-21T14:04:50.198Z,11.53
2018-08-21T14:07:21.439Z,8.30
2018-08-21T14:09:49.051Z,7.60
2018-08-21T14:12:16.766Z,8.63
2018-08-21T14:14:44.374Z,7.43
2018-08-21T14:17:12.074Z,7.63
2018-08-21T14:19:39.707Z,9.37
2018-08-21T14:22:07.508Z,9.90
2018-08-21T14:24:35.179Z,10.43
2018-08-21T14:27:02.801Z,9.03
2018-08-21T14:29:30.504Z,9.57
2018-08-21T14:31:58.122Z,7.90
2018-08-21T14:34:25.686Z,8.50
2018-08-21T14:36:53.300Z,6.97
2018-08-21T14:39:20.864Z,7.47
2018-08-21T14:41:48.509Z,7.67
2018-08-21T14:44:16.094Z,8.97
2018-08-21T14:46:43.698Z,9.10
2018-08-21T14:49:11.303Z,7.00
2018-08-21T14:51:38.987Z,6.90
2018-08-21T14:54:06.630Z,7.33
2018-08-21T14:56:34.246Z,7.57
2018-08-21T14:59:01.807Z,7.90
2018-08-21T15:01:29.499Z,7.47
2018-08-21T15:03:57.158Z,7.67
2018-08-21T15:06:24.830Z,7.90
2018-08-21T15:08:52.491Z,7.93
2018-08-21T15:11:20.105Z,9.20
2018-08-21T15:13:47.727Z,9.43
2018-08-21T15:16:15.330Z,8.40
2018-08-21T15:18:42.957Z,6.73
2018-08-21T15:21:10.579Z,6.60
2018-08-21T15:23:38.183Z,7.27
2018-08-21T15:26:05.925Z,9.80
2018-08-21T15:28:33.587Z,7.70
2018-08-21T15:31:01.182Z,8.87
2018-08-21T15:33:28.862Z,8.23
2018-08-21T15:35:56.398Z,7.30
2018-08-21T15:38:24.013Z,8.33
2018-08-21T15:40:51.482Z,7.97
2018-08-21T15:43:19.123Z,7.33
2018-08-21T15:45:46.706Z,8.90
2018-08-21T15:48:14.325Z,8.23
2018-08-21T15:50:41.974Z,10.03
2018-08-21T15:53:09.639Z,8.30
2018-08-21T15:55:37.250Z,8.80
2018-08-21T15:58:05.558Z,8.23
2018-08-21T16:00:36.286Z,9.40
2018-08-21T16:03:05.974Z,9.50
2018-08-21T16:05:33.530Z,8.80
2018-08-21T16:08:01.146Z,7.40
2018-08-21T16:10:32.432Z,7.87
2018-08-21T16:13:00.034Z,8.07
2018-08-21T16:15:27.549Z,8.27
2018-08-21T16:17:55.203Z,7.53
2018-08-21T16:20:22.747Z,9.90
2018-08-21T16:22:50.443Z,6.60
2018-08-21T16:25:18.214Z,7.17
2018-08-21T16:27:45.829Z,9.47
2018-08-21T16:30:13.404Z,7.43
2018-08-21T16:32:41.036Z,8.40
2018-08-21T16:35:08.661Z,9.50
2018-08-21T16:37:36.257Z,7.70
2018-08-21T16:40:04.308Z,8.60
2018-08-21T16:42:31.574Z,8.30
2018-08-21T16:44:59.134Z,8.83
2018-08-21T16:47:26.758Z,7.73
2018-08-21T16:49:54.313Z,9.67
2018-08-21T16:52:21.860Z,6.57
2018-08-21T16:54:49.558Z,8.13
2018-08-21T16:57:17.263Z,8.63
2018-08-21T16:59:44.954Z,6.90
2018-08-21T17:02:12.546Z,7.27
2018-08-21T17:04:40.174Z,9.80
2018-08-21T17:07:07.792Z,12.47
2018-08-21T17:09:35.391Z,8.83
2018-08-21T17:12:02.978Z,9.30
2018-08-21T17:14:30.604Z,6.70
2018-08-21T17:16:58.531Z,8.97
2018-08-21T17:19:26.093Z,8.90
2018-08-21T17:21:53.790Z,11.63
2018-08-21T17:24:21.417Z,7.90
2018-08-21T17:26:49.090Z,7.30
2018-08-21T17:29:16.702Z,9.07
2018-08-21T17:31:44.326Z,9.30
2018-08-21T17:34:11.898Z,8.60
2018-08-21T17:36:39.569Z,7.40
2018-08-21T17:39:08.158Z,8.63
2018-08-21T17:41:35.763Z,7.63
2018-08-21T17:44:03.398Z,8.30
2018-08-21T17:46:30.898Z,7.23
2018-08-21T17:48:58.555Z,9.60
2018-08-21T17:51:26.231Z,7.63
2018-08-21T17:53:53.814Z,8.70
2018-08-21T17:56:21.425Z,7.97
2018-08-21T17:58:48.998Z,7.80
2018-08-21T18:01:16.802Z,7.50
2018-08-21T18:03:44.569Z,8.43
2018-08-21T18:06:13.269Z,6.77
2018-08-21T18:08:41.052Z,7.47
2018-08-21T18:11:08.690Z,8.70
2018-08-21T18:13:36.284Z,9.87
2018-08-21T18:16:03.862Z,10.10
2018-08-21T18:18:31.511Z,7.90
2018-08-21T18:20:59.147Z,7.50
2018-08-21T18:23:26.838Z,8.67
2018-08-21T18:25:54.482Z,8.90
2018-08-21T18:28:22.130Z,6.33
2018-08-21T18:30:49.691Z,10.80
2018-08-21T18:33:17.302Z,7.77
2018-08-21T18:35:45.094Z,7.80
2018-08-21T18:38:12.599Z,9.17
2018-08-21T18:40:40.270Z,9.73
2018-08-21T18:43:07.879Z,7.90
2018-08-21T18:45:35.475Z,7.00
2018-08-21T18:48:03.170Z,7.13
2018-08-21T18:50:30.790Z,11.50
2018-08-21T18:52:58.383Z,10.73
2018-08-21T18:55:26.115Z,7.93
2018-08-21T18:57:53.701Z,8.20
2018-08-21T19:00:21.369Z,6.77
2018-08-21T19:02:49.027Z,9.53
2018-08-21T19:05:16.791Z,7.70
2018-08-21T19:07:44.476Z,7.93
2018-08-21T19:10:12.122Z,9.93
2018-08-21T19:12:39.730Z,10.07
2018-08-21T19:15:07.757Z,8.70
2018-08-21T19:17:35.443Z,8.83
2018-08-21T19:20:03.208Z,8.50
2018-08-21T19:22:30.742Z,8.10
2018-08-21T19:24:58.379Z,8.73
2018-08-21T19:27:25.950Z,7.87
2018-08-21T19:29:53.570Z,7.00
2018-08-21T19:32:21.258Z,8.87
2018-08-21T19:34:48.903Z,7.10
2018-08-21T19:37:16.606Z,6.47
2018-08-21T19:39:44.218Z,8.57
2018-08-21T19:42:11.887Z,7.43
2018-08-21T19:44:39.606Z,7.27
2018-08-21T19:47:07.319Z,8.10
2018-08-21T19:49:34.939Z,9.60
2018-08-21T19:52:03.142Z,7.40
2018-08-21T19:54:30.956Z,14.23
2018-08-21T19:56:58.787Z,11.37
2018-08-21T19:59:26.429Z,11.07
2018-08-21T20:01:54.139Z,9.23
2018-08-21T20:04:21.834Z,7.33
2018-08-21T20:06:49.478Z,6.57
2018-08-21T20:09:17.147Z,9.93
2018-08-21T20:11:44.750Z,9.87
2018-08-21T20:14:12.327Z,8.10
2018-08-21T20:16:39.900Z,8.13
2018-08-21T20:19:07.576Z,6.70
2018-08-21T20:21:36.294Z,7.77
2018-08-21T20:24:03.959Z,8.13
2018-08-21T20:26:31.597Z,7.70
2018-08-21T20:28:59.174Z,8.80
2018-08-21T20:31:26.842Z,6.70
2018-08-21T20:33:54.467Z,8.37
2018-08-21T20:36:22.266Z,6.33
2018-08-21T20:38:50.430Z,6.93
2018-08-21T20:41:18.506Z,7.80
2018-08-21T20:43:46.334Z,6.30
2018-08-21T20:46:13.958Z,10.87
2018-08-21T20:48:41.626Z,9.43
2018-08-21T20:51:13.057Z,7.37
2018-08-21T20:58:00.118Z,5.30
2018-08-21T21:00:27.774Z,7.20
2018-08-21T21:05:03.088Z,7.50
2018-08-21T21:07:30.696Z,6.27
2018-08-21T21:09:58.622Z,7.07
2018-08-21T21:12:37.332Z,7.63
2018-08-21T21:15:16.511Z,6.77
2018-08-21T21:17:55.455Z,6.10
2018-08-21T21:20:34.462Z,6.80
2018-08-21T21:23:13.403Z,6.40
2018-08-21T21:25:48.234Z,5.93
2018-08-21T21:28:17.307Z,7.00
2018-08-21T21:30:45.298Z,5.97
2018-08-21T21:33:13.366Z,5.40
2018-08-21T21:35:41.018Z,7.90
2018-08-21T21:38:09.139Z,5.63
2018-08-21T21:40:36.812Z,5.90
2018-08-21T21:43:04.650Z,5.13
2018-08-21T21:45:32.870Z,5.77
2018-08-21T21:48:00.451Z,7.80
2018-08-21T21:50:28.192Z,6.67
2018-08-21T21:52:55.829Z,5.53
2018-08-21T21:55:23.717Z,6.57
2018-08-21T21:57:51.302Z,5.97
2018-08-21T22:00:18.976Z,5.27
2018-08-21T22:02:46.606Z,8.30
2018-08-21T22:05:14.243Z,7.00
2018-08-21T22:07:41.919Z,6.23
2018-08-21T22:10:09.614Z,6.13
2018-08-21T22:12:37.205Z,6.53
2018-08-21T22:15:04.830Z,6.00
2018-08-21T22:17:32.512Z,6.57
2018-08-21T22:20:00.133Z,6.97
2018-08-21T22:22:27.802Z,10.33
2018-08-21T22:24:55.394Z,5.90
2018-08-21T22:27:23.023Z,7.77
2018-08-21T22:29:50.591Z,8.20
2018-08-21T22:32:18.234Z,5.60
2018-08-21T22:34:45.854Z,7.60
2018-08-21T22:37:13.471Z,5.90
2018-08-21T22:39:41.130Z,5.13
2018-08-21T22:42:08.742Z,6.00
2018-08-21T22:44:36.409Z,5.80
2018-08-21T22:47:04.024Z,7.00
2018-08-21T22:49:31.686Z,6.13
2018-08-21T22:51:59.347Z,6.83
2018-08-21T22:54:26.941Z,5.60
2018-08-21T22:56:54.554Z,6.10
2018-08-21T22:59:22.155Z,6.00
2018-08-21T23:01:49.850Z,5.67
2018-08-21T23:04:17.470Z,5.83
2018-08-21T23:06:48.305Z,5.90
2018-08-21T23:09:15.893Z,6.93
2018-08-21T23:11:43.562Z,6.10
2018-08-21T23:14:11.174Z,7.40
2018-08-21T23:16:38.816Z,6.67
2018-08-21T23:19:06.416Z,7.63
2018-08-21T23:21:34.043Z,5.80
2018-08-21T23:24:01.690Z,7.60
2018-08-21T23:26:29.306Z,6.77
2018-08-21T23:28:56.962Z,6.10
2018-08-21T23:31:24.678Z,7.73
2018-08-21T23:33:52.342Z,6.47
2018-08-21T23:36:19.974Z,6.43
2018-08-21T23:38:47.570Z,7.10
2018-08-21T23:41:15.275Z,8.40
2018-08-21T23:43:42.876Z,6.90
2018-08-21T23:46:11.297Z,6.10
2018-08-21T23:48:39.013Z,6.40
2018-08-21T23:51:06.643Z,6.37
2018-08-21T23:53:34.313Z,7.40
2018-08-21T23:56:01.927Z,6.53
2018-08-21T23:58:29.656Z,5.47
